Time;durP1;ratioP1;P1;durP2;ratioP2;P2;SDS_P1;SDS_P2;PMS_P1;PMS_P2;Temp;Humidity;BMP_temperature;BMP_pressure;BME280_temperature;BME280_humidity;BME280_pressure;Samples;Min_cycle;Max_cycle;Signal;HPM_P1;HPM_P2
2022/10/28 00:02:08;;;;;;;;;;;15.00;99.90;;;;;;5095985;28;19912;-75
2022/10/28 00:04:34;;;;;;;;;;;15.00;99.90;;;;;;5095882;28;20008;-74
2022/10/28 00:06:59;;;;;;;;;;;14.90;99.90;;;;;;5077440;28;19967;-75
2022/10/28 00:09:25;;;;;;;;;;;14.90;99.90;;;;;;5077650;28;19908;-74
2022/10/28 00:11:50;;;;;;;;;;;14.90;99.90;;;;;;5060868;28;19908;-74
2022/10/28 00:14:15;;;;;;;;;;;14.90;99.90;;;;;;5095676;28;19914;-74
2022/10/28 00:16:41;;;;;;;;;;;14.80;99.90;;;;;;5095666;28;20001;-74
2022/10/28 00:19:09;;;;;;;;;;;14.90;99.90;;;;;;5095610;28;19908;-74
2022/10/28 00:21:35;;;;;;;;;;;14.90;99.90;;;;;;5095539;28;19908;-74
2022/10/28 00:24:01;;;;;;;;;;;14.90;99.90;;;;;;5095465;28;19915;-74
2022/10/28 00:26:27;;;;;;;;;;;14.90;99.90;;;;;;5077255;28;19908;-74
2022/10/28 00:28:55;;;;;;;;;;;15.00;99.90;;;;;;5077185;28;20331;-74
2022/10/28 00:31:21;;;;;;;;;;;15.00;99.90;;;;;;5077201;28;19912;-74
2022/10/28 00:33:47;;;;;;;;;;;15.10;99.90;;;;;;5077292;28;19908;-74
2022/10/28 00:36:14;;;;;;;;;;;15.10;99.90;;;;;;5095264;28;19919;-74
2022/10/28 00:38:40;;;;;;;;;;;15.30;99.90;;;;;;5077244;28;19919;-74
2022/10/28 00:41:06;;;;;;;;;;;15.30;99.90;;;;;;5095179;28;20285;-74
2022/10/28 00:43:32;;;;;;;;;;;15.40;99.90;;;;;;5095147;28;19908;-74
2022/10/28 00:45:57;;;;;;;;;;;15.50;99.90;;;;;;5095050;28;19927;-74
2022/10/28 00:48:23;;;;;;;;;;;15.60;99.90;;;;;;5094937;28;19916;-74
2022/10/28 00:50:50;;;;;;;;;;;15.70;99.90;;;;;;5094707;28;19916;-74
2022/10/28 00:53:19;;;;;;;;;;;15.80;99.90;;;;;;5076257;28;19916;-74
2022/10/28 00:55:45;;;;;;;;;;;15.80;99.90;;;;;;5076718;28;19947;-74
2022/10/28 00:58:12;;;;;;;;;;;16.00;99.90;;;;;;5094825;28;19908;-74
2022/10/28 01:00:38;;;;;;;;;;;16.00;99.90;;;;;;5094756;28;19908;-74
2022/10/28 01:03:03;;;;;;;;;;;16.10;99.90;;;;;;5094722;28;19995;-74
2022/10/28 01:05:31;;;;;;;;;;;16.10;99.90;;;;;;5094703;28;19908;-74
2022/10/28 01:07:58;;;;;;;;;;;16.10;99.90;;;;;;5076156;28;19927;-74
2022/10/28 01:10:25;;;;;;;;;;;16.10;99.90;;;;;;5094597;28;19966;-74
2022/10/28 01:12:58;;;;;;;;;;;16.20;99.90;;;;;;5094548;28;19931;-74
2022/10/28 01:15:29;;;;;;;;;;;16.20;99.90;;;;;;5094526;28;19912;-74
2022/10/28 01:18:14;;;;;;;;;;;16.20;99.90;;;;;;5094431;28;20053;-74
2022/10/28 01:21:00;;;;;;;;;;;16.20;99.90;;;;;;5094332;28;19913;-74
2022/10/28 01:26:30;;;;;;;;;;;16.30;99.90;;;;;;5066816;22;19925;-73
2022/10/28 01:29:05;;;;;;;;;;;16.30;99.90;;;;;;5051613;28;20397;-73
2022/10/28 01:31:42;;;;;;;;;;;16.40;99.90;;;;;;5017461;28;19909;-73
2022/10/28 01:34:13;;;;;;;;;;;16.40;99.90;;;;;;5034001;28;20405;-72
2022/10/28 01:36:48;;;;;;;;;;;16.50;99.90;;;;;;5033966;28;19913;-72
2022/10/28 01:39:25;;;;;;;;;;;16.50;99.90;;;;;;5051413;28;19909;-73
2022/10/28 01:41:52;;;;;;;;;;;16.60;99.90;;;;;;5033945;28;19909;-73
2022/10/28 01:44:26;;;;;;;;;;;16.60;99.90;;;;;;5051285;28;19966;-73
2022/10/28 01:46:57;;;;;;;;;;;16.60;99.90;;;;;;5051725;28;19913;-72
2022/10/28 01:49:26;;;;;;;;;;;16.60;99.90;;;;;;5051334;28;19913;-73
2022/10/28 01:51:55;;;;;;;;;;;16.60;99.90;;;;;;5017365;28;19909;-73
2022/10/28 01:54:23;;;;;;;;;;;16.60;99.90;;;;;;5033673;28;19959;-73
2022/10/28 01:56:49;;;;;;;;;;;16.60;99.90;;;;;;5033275;28;19956;-72
2022/10/28 01:59:17;;;;;;;;;;;16.70;99.90;;;;;;5033424;28;19909;-73
2022/10/28 02:01:43;;;;;;;;;;;16.70;99.90;;;;;;5051248;28;20441;-73
2022/10/28 02:04:08;;;;;;;;;;;16.70;99.90;;;;;;5033347;28;20016;-73
2022/10/28 02:06:35;;;;;;;;;;;16.70;99.90;;;;;;5050826;28;19932;-73
2022/10/28 02:09:21;;;;;;;;;;;16.70;99.90;;;;;;5033355;28;19916;-73
2022/10/28 02:11:55;;;;;;;;;;;16.80;99.90;;;;;;5050498;28;19959;-73
2022/10/28 02:14:41;;;;;;;;;;;16.80;99.90;;;;;;5050777;28;19909;-73
2022/10/28 02:17:26;;;;;;;;;;;16.80;99.90;;;;;;5050526;28;19936;-72
2022/10/28 02:19:59;;;;;;;;;;;16.70;99.90;;;;;;5050572;28;20004;-73
2022/10/28 02:22:29;;;;;;;;;;;16.70;99.90;;;;;;5033052;28;19932;-73
2022/10/28 02:25:00;;;;;;;;;;;16.60;99.90;;;;;;5050304;28;19951;-72
2022/10/28 02:27:36;;;;;;;;;;;16.60;99.90;;;;;;5032781;28;20008;-73
2022/10/28 02:30:05;;;;;;;;;;;16.50;99.90;;;;;;5016299;28;19909;-72
2022/10/28 02:32:33;;;;;;;;;;;16.50;99.90;;;;;;5050509;28;19913;-72
2022/10/28 02:35:00;;;;;;;;;;;16.40;99.90;;;;;;5032761;28;19964;-72
2022/10/28 02:37:28;;;;;;;;;;;16.40;99.90;;;;;;5020632;28;19952;-73
2022/10/28 02:39:55;;;;;;;;;;;16.30;99.90;;;;;;5004972;28;20283;-73
2022/10/28 02:42:23;;;;;;;;;;;16.20;99.90;;;;;;5037370;28;19909;-72
2022/10/28 02:44:53;;;;;;;;;;;16.10;99.90;;;;;;5019184;28;19913;-72
2022/10/28 02:47:20;;;;;;;;;;;16.00;99.90;;;;;;5019272;28;19910;-73
2022/10/28 02:49:48;;;;;;;;;;;15.90;99.90;;;;;;5036943;28;20355;-73
2022/10/28 02:52:14;;;;;;;;;;;15.90;99.90;;;;;;5019233;28;19920;-72
2022/10/28 02:54:44;;;;;;;;;;;15.90;99.90;;;;;;5036777;28;19909;-73
2022/10/28 02:57:13;;;;;;;;;;;15.90;99.90;;;;;;5019077;28;19909;-72
2022/10/28 02:59:39;;;;;;;;;;;15.80;99.90;;;;;;5036858;28;19909;-72
2022/10/28 03:02:04;;;;;;;;;;;15.80;99.90;;;;;;5036763;28;20005;-72
2022/10/28 03:04:30;;;;;;;;;;;15.90;99.90;;;;;;5002406;28;19948;-72
2022/10/28 03:06:55;;;;;;;;;;;15.90;99.90;;;;;;5019059;28;19916;-73
2022/10/28 03:09:21;;;;;;;;;;;15.90;99.90;;;;;;5002599;28;19909;-73
2022/10/28 03:11:46;;;;;;;;;;;15.90;99.90;;;;;;5036440;28;19909;-73
2022/10/28 03:14:12;;;;;;;;;;;15.90;99.90;;;;;;5036437;28;19916;-72
2022/10/28 03:16:37;;;;;;;;;;;15.90;99.90;;;;;;5036288;28;19914;-72
2022/10/28 03:19:03;;;;;;;;;;;15.90;99.90;;;;;;5018774;28;20398;-72
2022/10/28 03:21:28;;;;;;;;;;;15.90;99.90;;;;;;5018302;28;20012;-72
2022/10/28 03:23:54;;;;;;;;;;;15.90;99.90;;;;;;5018540;28;19913;-72
2022/10/28 03:26:20;;;;;;;;;;;15.80;99.90;;;;;;5036082;28;19927;-72
2022/10/28 03:28:45;;;;;;;;;;;15.80;99.90;;;;;;5036174;28;20007;-72
2022/10/28 03:31:11;;;;;;;;;;;15.70;99.90;;;;;;5002177;28;20008;-72
2022/10/28 03:33:36;;;;;;;;;;;15.60;99.90;;;;;;5018354;28;19913;-72
2022/10/28 03:36:02;;;;;;;;;;;15.50;99.90;;;;;;5018455;28;19945;-73
2022/10/28 03:38:27;;;;;;;;;;;15.40;99.90;;;;;;5019127;28;20363;-72
2022/10/28 03:40:53;;;;;;;;;;;15.40;99.90;;;;;;5018715;28;20351;-72
2022/10/28 03:43:18;;;;;;;;;;;15.40;99.90;;;;;;5018463;28;19909;-73
2022/10/28 03:45:44;;;;;;;;;;;15.40;99.90;;;;;;5018245;28;19913;-72
2022/10/28 03:48:09;;;;;;;;;;;15.40;99.90;;;;;;5017494;28;20278;-73
2022/10/28 03:50:35;;;;;;;;;;;15.40;99.90;;;;;;5036054;28;19958;-72
2022/10/28 03:53:00;;;;;;;;;;;15.40;99.90;;;;;;5035672;28;19909;-73
2022/10/28 03:55:26;;;;;;;;;;;15.40;99.90;;;;;;5035797;28;19916;-72
2022/10/28 03:57:52;;;;;;;;;;;15.40;99.90;;;;;;5036029;28;19909;-72
2022/10/28 04:00:18;;;;;;;;;;;15.40;99.90;;;;;;5035719;28;19931;-73
2022/10/28 04:02:51;;;;;;;;;;;15.40;99.90;;;;;;5001927;28;20000;-72
2022/10/28 04:05:16;;;;;;;;;;;15.40;99.90;;;;;;5017725;28;19913;-72
2022/10/28 04:07:42;;;;;;;;;;;15.30;99.90;;;;;;5017747;28;19909;-72
2022/10/28 04:10:08;;;;;;;;;;;15.30;99.90;;;;;;5035709;28;19996;-72
2022/10/28 04:12:33;;;;;;;;;;;15.20;99.90;;;;;;5001718;28;19920;-73
2022/10/28 04:14:59;;;;;;;;;;;15.10;99.90;;;;;;5017675;28;19959;-72
2022/10/28 04:17:24;;;;;;;;;;;15.00;99.90;;;;;;5017483;28;20359;-72
2022/10/28 04:19:49;;;;;;;;;;;14.90;99.90;;;;;;5017695;28;20260;-72
2022/10/28 04:22:15;;;;;;;;;;;14.80;99.90;;;;;;5017372;28;19909;-72
2022/10/28 04:24:41;;;;;;;;;;;14.70;99.90;;;;;;5035071;28;19928;-72
2022/10/28 04:27:06;;;;;;;;;;;14.60;99.90;;;;;;5017246;28;19909;-72
2022/10/28 04:29:32;;;;;;;;;;;14.60;99.90;;;;;;5035187;28;19916;-72
2022/10/28 04:31:58;;;;;;;;;;;14.50;99.90;;;;;;5017414;28;19916;-73
2022/10/28 04:34:24;;;;;;;;;;;14.40;99.90;;;;;;5017513;28;20351;-72
2022/10/28 04:36:49;;;;;;;;;;;14.30;99.90;;;;;;5001005;28;19944;-72
2022/10/28 04:39:15;;;;;;;;;;;14.30;99.90;;;;;;5017358;28;19909;-72
2022/10/28 04:41:40;;;;;;;;;;;14.20;99.90;;;;;;5034970;28;19909;-74
2022/10/28 04:44:05;;;;;;;;;;;14.10;99.90;;;;;;5017100;28;19917;-72
2022/10/28 04:46:31;;;;;;;;;;;14.10;99.90;;;;;;5034722;28;20003;-72
2022/10/28 04:48:56;;;;;;;;;;;14.00;99.90;;;;;;5034699;28;20291;-72
2022/10/28 04:51:22;;;;;;;;;;;13.90;99.90;;;;;;5034950;28;19909;-72
2022/10/28 04:53:47;;;;;;;;;;;13.80;99.90;;;;;;5034998;28;20371;-72
2022/10/28 04:56:13;;;;;;;;;;;13.80;99.90;;;;;;5000584;28;19913;-72
2022/10/28 04:58:38;;;;;;;;;;;13.80;99.90;;;;;;5034427;28;19909;-72
2022/10/28 05:01:05;;;;;;;;;;;13.80;99.90;;;;;;5016967;28;19920;-72
2022/10/28 05:03:30;;;;;;;;;;;13.80;99.90;;;;;;5034782;28;19917;-72
2022/10/28 05:05:56;;;;;;;;;;;13.80;99.90;;;;;;5034896;28;19913;-72
2022/10/28 05:08:21;;;;;;;;;;;13.70;99.90;;;;;;5000335;28;19913;-72
2022/10/28 05:10:49;;;;;;;;;;;13.70;99.90;;;;;;5016976;28;19921;-72
2022/10/28 05:13:15;;;;;;;;;;;13.70;99.90;;;;;;5034945;28;19909;-72
2022/10/28 05:15:41;;;;;;;;;;;13.80;99.90;;;;;;5017577;28;19909;-72
2022/10/28 05:18:06;;;;;;;;;;;13.70;99.90;;;;;;5017376;28;19979;-72
2022/10/28 05:20:32;;;;;;;;;;;13.70;99.90;;;;;;5034898;28;19909;-72
2022/10/28 05:22:57;;;;;;;;;;;13.60;99.90;;;;;;5017495;28;19963;-72
2022/10/28 05:25:23;;;;;;;;;;;13.60;99.90;;;;;;5034369;28;19925;-72
2022/10/28 05:27:48;;;;;;;;;;;13.60;99.90;;;;;;5034764;28;19960;-72
2022/10/28 05:30:14;;;;;;;;;;;13.60;99.90;;;;;;5017031;28;19916;-72
2022/10/28 05:32:40;;;;;;;;;;;13.50;99.90;;;;;;5017452;28;19909;-71
2022/10/28 05:35:05;;;;;;;;;;;13.60;99.90;;;;;;5017262;28;19909;-72
2022/10/28 05:37:31;;;;;;;;;;;13.50;99.90;;;;;;5017029;28;19948;-72
2022/10/28 05:39:56;;;;;;;;;;;13.50;99.90;;;;;;5016555;28;19909;-72
2022/10/28 05:42:22;;;;;;;;;;;13.40;99.90;;;;;;5034452;28;19913;-71
2022/10/28 05:44:47;;;;;;;;;;;13.40;99.90;;;;;;5034132;28;19936;-72
2022/10/28 05:47:13;;;;;;;;;;;13.40;99.90;;;;;;5000684;28;20275;-72
2022/10/28 05:49:38;;;;;;;;;;;13.30;99.90;;;;;;5016650;28;19917;-72
2022/10/28 05:52:04;;;;;;;;;;;13.30;99.90;;;;;;5016504;28;19910;-73
2022/10/28 05:54:29;;;;;;;;;;;13.30;99.90;;;;;;5034052;28;19932;-72
2022/10/28 05:56:55;;;;;;;;;;;13.30;99.90;;;;;;5016988;28;19966;-72
2022/10/28 05:59:20;;;;;;;;;;;13.30;99.90;;;;;;5016379;28;20362;-72
2022/10/28 06:01:46;;;;;;;;;;;13.20;99.90;;;;;;5026079;28;19922;-72
2022/10/28 06:04:11;;;;;;;;;;;13.20;99.90;;;;;;4993475;28;19917;-72
2022/10/28 06:06:37;;;;;;;;;;;13.20;99.90;;;;;;5014235;28;19913;-72
2022/10/28 06:09:03;;;;;;;;;;;13.20;99.90;;;;;;5016149;28;19913;-72
2022/10/28 06:11:28;;;;;;;;;;;13.10;99.90;;;;;;5017946;28;20363;-72
2022/10/28 06:13:53;;;;;;;;;;;13.10;99.90;;;;;;5019116;28;19963;-72
2022/10/28 06:16:19;;;;;;;;;;;13.10;99.90;;;;;;5003470;28;19952;-73
2022/10/28 06:18:44;;;;;;;;;;;13.10;99.90;;;;;;5020194;28;19913;-72
2022/10/28 06:21:10;;;;;;;;;;;13.20;99.90;;;;;;5019878;28;19916;-72
2022/10/28 06:23:35;;;;;;;;;;;13.20;99.90;;;;;;5019503;28;19959;-71
2022/10/28 06:26:02;;;;;;;;;;;13.20;99.90;;;;;;5017339;28;20004;-71
2022/10/28 06:28:28;;;;;;;;;;;13.20;99.90;;;;;;5017926;28;19917;-71
2022/10/28 06:30:53;;;;;;;;;;;13.30;99.90;;;;;;5003535;28;20488;-71
2022/10/28 06:33:19;;;;;;;;;;;13.40;99.90;;;;;;5037474;28;19960;-72
2022/10/28 06:35:44;;;;;;;;;;;13.40;99.90;;;;;;5037085;28;20260;-70
2022/10/28 06:38:10;;;;;;;;;;;13.50;99.90;;;;;;5023186;28;19913;-70
2022/10/28 06:40:35;;;;;;;;;;;13.70;99.90;;;;;;5001649;28;19917;-70
2022/10/28 06:43:02;;;;;;;;;;;13.80;99.90;;;;;;5035968;28;19910;-71
2022/10/28 06:45:28;;;;;;;;;;;14.10;99.90;;;;;;5001674;28;19974;-71
2022/10/28 06:47:55;;;;;;;;;;;14.40;99.90;;;;;;5035906;28;19924;-71
2022/10/28 06:50:21;;;;;;;;;;;14.70;99.90;;;;;;5017757;28;19921;-71
2022/10/28 06:52:47;;;;;;;;;;;15.00;99.90;;;;;;5028619;28;19914;-72
2022/10/28 06:55:13;;;;;;;;;;;15.40;99.90;;;;;;5014380;28;19909;-72
2022/10/28 06:57:38;;;;;;;;;;;15.80;99.90;;;;;;4985658;28;20421;-72
2022/10/28 07:00:04;;;;;;;;;;;16.10;99.90;;;;;;5024797;28;20383;-71
2022/10/28 07:02:29;;;;;;;;;;;16.20;99.90;;;;;;5035799;28;19913;-71
2022/10/28 07:04:55;;;;;;;;;;;16.50;99.90;;;;;;5001127;28;19917;-71
2022/10/28 07:07:20;;;;;;;;;;;16.70;99.90;;;;;;4998801;28;19959;-71
2022/10/28 07:09:46;;;;;;;;;;;16.90;99.90;;;;;;5016569;28;19909;-71
2022/10/28 07:12:11;;;;;;;;;;;17.20;99.90;;;;;;5030408;28;19909;-72
2022/10/28 07:14:37;;;;;;;;;;;17.50;99.90;;;;;;5014831;28;20295;-71
2022/10/28 07:17:02;;;;;;;;;;;17.40;99.90;;;;;;5013778;28;19909;-71
2022/10/28 07:19:28;;;;;;;;;;;17.40;99.90;;;;;;5034187;28;19909;-71
2022/10/28 07:21:53;;;;;;;;;;;17.50;99.90;;;;;;5017887;28;20390;-71
2022/10/28 07:24:19;;;;;;;;;;;17.50;99.90;;;;;;5034883;28;19960;-71
2022/10/28 07:26:46;;;;;;;;;;;17.20;99.90;;;;;;5034316;28;20428;-71
2022/10/28 07:29:11;;;;;;;;;;;17.20;99.90;;;;;;5011629;28;19917;-71
2022/10/28 07:31:37;;;;;;;;;;;17.40;99.90;;;;;;4998697;28;19916;-72
2022/10/28 07:34:02;;;;;;;;;;;17.50;99.90;;;;;;5009345;28;19913;-71
2022/10/28 07:36:28;;;;;;;;;;;17.60;99.90;;;;;;5030240;28;20358;-71
2022/10/28 07:38:53;;;;;;;;;;;17.70;99.90;;;;;;5035752;28;20354;-71
2022/10/28 07:41:20;;;;;;;;;;;17.60;99.90;;;;;;5017636;28;19913;-71
2022/10/28 07:43:45;;;;;;;;;;;17.50;99.90;;;;;;5017886;28;19909;-71
2022/10/28 07:46:11;;;;;;;;;;;17.50;99.90;;;;;;5017494;28;19984;-71
2022/10/28 07:48:36;;;;;;;;;;;17.60;99.90;;;;;;5035750;28;20413;-71
2022/10/28 07:51:03;;;;;;;;;;;17.80;99.90;;;;;;5035675;28;19909;-71
2022/10/28 07:53:28;;;;;;;;;;;18.20;99.90;;;;;;5017796;28;19909;-72
2022/10/28 07:55:55;;;;;;;;;;;18.50;99.90;;;;;;5009702;28;19917;-71
2022/10/28 07:58:21;;;;;;;;;;;19.00;99.90;;;;;;5016443;28;19913;-71
2022/10/28 08:00:47;;;;;;;;;;;19.60;99.90;;;;;;5017805;28;19916;-71
2022/10/28 08:03:12;;;;;;;;;;;20.40;99.90;;;;;;5017423;28;19909;-72
2022/10/28 08:05:38;;;;;;;;;;;21.20;99.90;;;;;;5019218;28;19924;-72
2022/10/28 08:08:03;;;;;;;;;;;21.90;99.90;;;;;;5017361;28;19913;-71
2022/10/28 08:10:29;;;;;;;;;;;22.50;99.90;;;;;;4996115;28;20372;-73
2022/10/28 08:12:55;;;;;;;;;;;22.90;99.90;;;;;;5025069;28;19924;-72
2022/10/28 08:15:22;;;;;;;;;;;23.20;99.90;;;;;;5002502;28;20374;-71
2022/10/28 08:17:49;;;;;;;;;;;23.70;99.90;;;;;;5017801;28;19916;-72
2022/10/28 08:20:15;;;;;;;;;;;24.20;99.90;;;;;;5034997;28;20004;-71
2022/10/28 08:22:40;;;;;;;;;;;24.50;99.90;;;;;;5034061;28;20077;-72
2022/10/28 08:25:06;;;;;;;;;;;24.90;99.90;;;;;;5034961;28;20059;-72
2022/10/28 08:27:32;;;;;;;;;;;25.10;99.90;;;;;;5035188;28;19955;-72
2022/10/28 08:29:57;;;;;;;;;;;25.20;99.90;;;;;;5034893;28;20023;-72
2022/10/28 08:32:22;;;;;;;;;;;25.40;99.90;;;;;;5016539;28;20359;-72
2022/10/28 08:34:48;;;;;;;;;;;25.50;99.90;;;;;;5017084;28;19957;-72
2022/10/28 08:37:15;;;;;;;;;;;25.40;99.90;;;;;;4996008;28;19917;-72
2022/10/28 08:39:43;;;;;;;;;;;25.70;99.90;;;;;;5035093;28;19909;-71
2022/10/28 08:42:29;;;;;;;;;;;25.70;99.90;;;;;;5017121;28;19916;-71
2022/10/28 08:45:14;;;;;;;;;;;25.60;99.90;;;;;;5015792;28;19972;-71
2022/10/28 08:47:46;;;;;;;;;;;24.90;99.90;;;;;;5034070;28;19920;-71
2022/10/28 08:50:13;;;;;;;;;;;24.40;99.90;;;;;;5015311;28;19935;-72
2022/10/28 08:52:43;;;;;;;;;;;24.00;99.90;;;;;;5010146;28;20295;-72
2022/10/28 08:55:19;;;;;;;;;;;23.50;99.90;;;;;;4981019;28;19924;-72
2022/10/28 08:57:51;;;;;;;;;;;23.10;99.90;;;;;;4999396;28;19921;-72
2022/10/28 09:00:19;;;;;;;;;;;23.00;99.90;;;;;;5032846;28;19921;-72
2022/10/28 09:03:02;;;;;;;;;;;22.80;99.90;;;;;;5014053;28;19948;-71
2022/10/28 09:05:28;;;;;;;;;;;22.80;99.90;;;;;;5032853;28;19913;-71
2022/10/28 09:07:55;;;;;;;;;;;23.10;99.90;;;;;;5034598;28;19913;-72
2022/10/28 09:10:40;;;;;;;;;;;23.40;99.90;;;;;;5033937;28;19910;-72
2022/10/28 09:13:13;;;;;;;;;;;23.50;99.90;;;;;;5016828;28;19909;-72
2022/10/28 09:15:41;;;;;;;;;;;24.10;99.90;;;;;;4996469;28;20364;-72
2022/10/28 09:20:53;;;;;;;;;;;24.90;99.90;;;;;;5132842;27;19911;-72
2022/10/28 09:23:23;;;;;;;;;;;25.30;99.90;;;;;;5132260;27;19916;-73
2022/10/28 09:26:08;;;;;;;;;;;25.70;99.90;;;;;;5111336;28;19912;-71
2022/10/28 09:31:27;;;;;;;;;;;26.30;99.90;;;;;;5118547;27;19922;-73
2022/10/28 09:34:13;;;;;;;;;;;27.40;99.90;;;;;;5094359;28;20331;-71
2022/10/28 09:36:41;;;;;;;;;;;28.10;99.90;;;;;;5110367;28;20228;-72
2022/10/28 09:39:13;;;;;;;;;;;28.50;99.90;;;;;;5094709;28;19977;-72
2022/10/28 09:41:38;;;;;;;;;;;28.20;99.90;;;;;;5111746;28;20315;-71
2022/10/28 09:44:24;;;;;;;;;;;27.70;99.90;;;;;;5112128;28;19965;-72
2022/10/28 09:46:51;;;;;;;;;;;27.90;99.90;;;;;;5112280;28;19915;-72
2022/10/28 09:49:19;;;;;;;;;;;27.80;99.90;;;;;;5143642;27;20281;-72
2022/10/28 09:51:49;;;;;;;;;;;27.70;99.90;;;;;;5110165;28;19927;-72
2022/10/28 09:54:14;;;;;;;;;;;27.20;99.90;;;;;;5111610;28;19995;-72
2022/10/28 09:56:40;;;;;;;;;;;27.80;99.90;;;;;;5114238;28;20010;-72
2022/10/28 09:59:06;;;;;;;;;;;27.50;99.90;;;;;;5109255;28;19915;-72
2022/10/28 10:01:34;;;;;;;;;;;27.90;99.90;;;;;;5111937;28;19912;-72
2022/10/28 10:04:00;;;;;;;;;;;28.10;99.90;;;;;;5128160;28;19916;-72
2022/10/28 10:06:28;;;;;;;;;;;27.80;99.90;;;;;;5113034;28;19931;-72
2022/10/28 10:08:54;;;;;;;;;;;27.80;99.90;;;;;;5114767;28;19912;-71
2022/10/28 10:11:25;;;;;;;;;;;27.90;99.90;;;;;;5091679;28;19966;-72
2022/10/28 10:13:51;;;;;;;;;;;27.80;99.90;;;;;;5123394;28;20381;-72
2022/10/28 10:16:20;;;;;;;;;;;28.20;99.90;;;;;;5127452;27;19914;-72
2022/10/28 10:18:48;;;;;;;;;;;27.50;99.90;;;;;;5110273;28;19935;-71
2022/10/28 10:21:15;;;;;;;;;;;26.40;99.90;;;;;;5111199;28;19962;-72
2022/10/28 10:23:41;;;;;;;;;;;26.20;99.90;;;;;;5108250;28;20004;-72
2022/10/28 10:26:09;;;;;;;;;;;26.20;99.90;;;;;;5121815;28;20344;-72
2022/10/28 10:28:35;;;;;;;;;;;26.40;99.90;;;;;;5108364;28;20003;-71
2022/10/28 10:31:02;;;;;;;;;;;26.50;99.90;;;;;;5111710;28;20445;-71
2022/10/28 10:33:31;;;;;;;;;;;26.50;99.90;;;;;;5112538;28;19918;-72
2022/10/28 10:36:00;;;;;;;;;;;27.20;99.90;;;;;;5110214;28;19912;-70
2022/10/28 10:38:27;;;;;;;;;;;27.00;99.90;;;;;;5110921;28;19922;-71
2022/10/28 10:40:52;;;;;;;;;;;27.60;99.90;;;;;;5106439;28;19933;-72
2022/10/28 10:43:21;;;;;;;;;;;27.70;99.90;;;;;;5096919;28;19908;-72
2022/10/28 10:46:03;;;;;;;;;;;27.50;99.90;;;;;;5095785;28;20289;-72
2022/10/28 10:48:31;;;;;;;;;;;27.60;99.90;;;;;;5095341;28;19908;-71
2022/10/28 10:50:57;;;;;;;;;;;27.20;99.90;;;;;;5095673;28;19916;-71
2022/10/28 10:53:27;;;;;;;;;;;26.70;99.90;;;;;;5096384;28;19908;-71
2022/10/28 10:55:54;;;;;;;;;;;26.60;99.90;;;;;;5094997;28;20376;-71
2022/10/28 10:58:21;;;;;;;;;;;26.40;99.90;;;;;;5095812;28;19941;-72
2022/10/28 11:00:49;;;;;;;;;;;26.70;99.90;;;;;;5096709;28;19997;-71
2022/10/28 11:03:17;;;;;;;;;;;26.70;99.90;;;;;;5111198;28;19934;-71
2022/10/28 11:05:47;;;;;;;;;;;26.60;99.90;;;;;;5093559;28;20007;-71
2022/10/28 11:08:26;;;;;;;;;;;26.50;99.90;;;;;;5096976;28;20003;-72
2022/10/28 11:11:12;;;;;;;;;;;26.20;99.90;;;;;;5112652;28;19912;-72
2022/10/28 11:13:38;;;;;;;;;;;26.00;99.90;;;;;;5095291;28;19908;-71
2022/10/28 11:16:05;;;;;;;;;;;25.80;99.90;;;;;;5098673;28;20301;-71
2022/10/28 11:18:39;;;;;;;;;;;25.50;99.90;;;;;;5097920;28;19970;-71
2022/10/28 11:21:09;;;;;;;;;;;25.60;99.90;;;;;;5088445;28;19912;-71
2022/10/28 11:23:43;;;;;;;;;;;25.50;99.90;;;;;;5095568;28;20408;-71
2022/10/28 11:26:12;;;;;;;;;;;25.70;99.90;;;;;;5094764;28;19998;-72
2022/10/28 11:28:47;;;;;;;;;;;25.60;99.90;;;;;;5095904;28;19957;-72
2022/10/28 11:31:33;;;;;;;;;;;25.50;99.90;;;;;;5095408;28;19927;-71
2022/10/28 11:34:08;;;;;;;;;;;25.40;99.90;;;;;;5096067;28;19955;-71
2022/10/28 11:36:53;;;;;;;;;;;25.40;99.90;;;;;;5095602;28;20332;-71
2022/10/28 11:39:22;;;;;;;;;;;25.30;99.90;;;;;;5094892;28;19912;-71
2022/10/28 11:41:54;;;;;;;;;;;25.40;99.90;;;;;;5110922;28;19912;-71
2022/10/28 11:44:31;;;;;;;;;;;25.40;99.90;;;;;;5097795;28;19999;-71
2022/10/28 11:47:17;;;;;;;;;;;25.40;99.90;;;;;;5116224;28;19908;-72
2022/10/28 11:50:00;;;;;;;;;;;25.30;99.90;;;;;;5095251;28;19916;-72
2022/10/28 11:52:39;;;;;;;;;;;25.00;99.90;;;;;;5093483;28;19908;-71
2022/10/28 11:55:25;;;;;;;;;;;24.90;99.90;;;;;;5096270;28;19951;-71
2022/10/28 11:58:10;;;;;;;;;;;24.90;99.90;;;;;;5093780;28;19916;-72
2022/10/28 12:00:42;;;;;;;;;;;24.90;99.90;;;;;;5127969;27;19909;-72
2022/10/28 12:03:27;;;;;;;;;;;24.80;99.90;;;;;;5096770;28;19919;-72
2022/10/28 12:06:00;;;;;;;;;;;24.80;99.90;;;;;;5091533;28;20010;-74
2022/10/28 12:08:31;;;;;;;;;;;24.70;99.90;;;;;;5094196;28;19908;-72
2022/10/28 12:11:02;;;;;;;;;;;24.60;99.90;;;;;;5094020;28;19912;-72
2022/10/28 12:13:39;;;;;;;;;;;24.60;99.90;;;;;;5094795;28;19916;-72
2022/10/28 12:16:09;;;;;;;;;;;24.60;99.90;;;;;;5094958;28;19957;-72
2022/10/28 12:18:46;;;;;;;;;;;24.80;99.90;;;;;;5095095;28;19908;-72
2022/10/28 12:21:30;;;;;;;;;;;24.90;99.90;;;;;;5094850;28;19958;-72
2022/10/28 12:23:57;;;;;;;;;;;24.90;99.90;;;;;;5093944;28;19919;-72
2022/10/28 12:26:32;;;;;;;;;;;25.00;99.90;;;;;;5095637;28;19934;-72
2022/10/28 12:28:59;;;;;;;;;;;25.00;99.90;;;;;;5094440;28;19915;-72
2022/10/28 12:31:41;;;;;;;;;;;25.00;99.90;;;;;;5092354;28;19908;-71
2022/10/28 12:34:09;;;;;;;;;;;24.90;99.90;;;;;;5081006;28;19951;-72
2022/10/28 12:36:38;;;;;;;;;;;24.90;99.90;;;;;;5093059;28;19912;-72
2022/10/28 12:39:21;;;;;;;;;;;24.80;99.90;;;;;;5093081;28;20362;-72
2022/10/28 12:41:54;;;;;;;;;;;24.90;99.90;;;;;;5093612;28;19915;-72
2022/10/28 12:44:21;;;;;;;;;;;25.00;99.90;;;;;;5094773;28;19962;-72
2022/10/28 12:47:06;;;;;;;;;;;25.10;99.90;;;;;;5093274;28;20421;-72
2022/10/28 12:49:52;;;;;;;;;;;25.20;99.90;;;;;;5094739;28;19912;-73
2022/10/28 12:52:24;;;;;;;;;;;25.20;99.90;;;;;;5094292;28;19908;-72
2022/10/28 12:54:55;;;;;;;;;;;25.10;99.90;;;;;;5094598;28;19984;-72
2022/10/28 12:57:21;;;;;;;;;;;25.00;99.90;;;;;;5076619;28;19911;-72
2022/10/28 12:59:50;;;;;;;;;;;25.10;99.90;;;;;;5093219;28;19908;-72
2022/10/28 13:02:18;;;;;;;;;;;25.00;99.90;;;;;;5094337;28;19995;-72
2022/10/28 13:04:43;;;;;;;;;;;25.10;99.90;;;;;;5093201;28;20363;-72
2022/10/28 13:07:15;;;;;;;;;;;25.20;99.90;;;;;;5094157;28;19908;-72
2022/10/28 13:10:00;;;;;;;;;;;25.40;99.90;;;;;;5093197;28;19920;-72
2022/10/28 13:12:38;;;;;;;;;;;25.40;99.90;;;;;;5093030;28;19994;-73
2022/10/28 13:15:14;;;;;;;;;;;25.50;99.90;;;;;;5092842;28;19915;-73
2022/10/28 13:17:59;;;;;;;;;;;25.40;99.90;;;;;;5094052;28;19908;-71
2022/10/28 13:20:45;;;;;;;;;;;25.50;99.90;;;;;;5092566;28;19932;-73
2022/10/28 13:23:17;;;;;;;;;;;25.40;99.90;;;;;;5079739;28;19915;-71
2022/10/28 13:25:52;;;;;;;;;;;25.40;99.90;;;;;;5094033;28;19947;-72
2022/10/28 13:28:20;;;;;;;;;;;25.30;99.90;;;;;;5092950;28;20365;-72
2022/10/28 13:30:54;;;;;;;;;;;25.30;99.90;;;;;;5076066;28;19920;-72
2022/10/28 13:33:22;;;;;;;;;;;25.30;99.90;;;;;;5076078;28;19908;-72
2022/10/28 13:35:49;;;;;;;;;;;25.30;99.90;;;;;;5094360;28;20384;-72
2022/10/28 13:38:18;;;;;;;;;;;25.30;99.90;;;;;;5094841;28;19995;-72
2022/10/28 13:43:43;;;;;;;;;;;25.30;99.90;;;;;;5091959;27;19912;-71
2022/10/28 13:46:08;;;;;;;;;;;25.30;99.90;;;;;;5090462;28;19912;-72
2022/10/28 13:48:44;;;;;;;;;;;25.30;99.90;;;;;;5124647;28;19936;-73
2022/10/28 13:53:55;;;;;;;;;;;25.30;99.90;;;;;;5091917;27;19913;-71
2022/10/28 13:56:24;;;;;;;;;;;25.20;99.90;;;;;;5108112;28;19920;-71
2022/10/28 13:59:09;;;;;;;;;;;25.20;99.90;;;;;;5091580;28;20346;-71
2022/10/28 14:01:54;;;;;;;;;;;25.10;99.90;;;;;;5091808;28;19927;-71
2022/10/28 14:04:37;;;;;;;;;;;25.10;99.90;;;;;;5091457;28;20328;-72
2022/10/28 14:07:14;;;;;;;;;;;25.00;99.90;;;;;;5091435;28;19947;-71
2022/10/28 14:09:40;;;;;;;;;;;25.00;99.90;;;;;;5089811;28;19909;-71
2022/10/28 14:12:18;;;;;;;;;;;24.90;99.90;;;;;;5091487;28;19920;-71
2022/10/28 14:14:54;;;;;;;;;;;24.90;99.90;;;;;;5091204;28;20007;-71
2022/10/28 14:17:21;;;;;;;;;;;24.90;99.90;;;;;;5124029;28;19999;-71
2022/10/28 14:19:48;;;;;;;;;;;24.90;99.90;;;;;;5124019;28;19908;-71
2022/10/28 14:22:25;;;;;;;;;;;24.80;99.90;;;;;;5091152;28;19996;-71
2022/10/28 14:24:50;;;;;;;;;;;24.80;99.90;;;;;;5090074;28;19915;-71
2022/10/28 14:27:25;;;;;;;;;;;24.80;99.90;;;;;;5091664;28;19909;-71
2022/10/28 14:38:09;;;;;;;;;;;24.80;99.90;;;;;;5091530;27;20288;-72
2022/10/28 14:40:52;;;;;;;;;;;24.70;99.90;;;;;;5091571;28;20328;-72
2022/10/28 14:43:38;;;;;;;;;;;24.60;99.90;;;;;;5107394;28;19909;-72
2022/10/28 14:46:23;;;;;;;;;;;24.60;99.90;;;;;;5091754;28;19965;-72
2022/10/28 14:48:50;;;;;;;;;;;24.50;99.90;;;;;;5090115;28;19909;-72
2022/10/28 14:51:19;;;;;;;;;;;24.40;99.90;;;;;;5089974;28;19908;-73